Hlavní strana
METAR-TAF:

METAR-TAF

Letiště :

Letiště Atény

Athény, Řecko

zeměpisná šířka: 37-56N, zeměpisná délka: 023-56E, výška: 94 m

Aktuální stav počasí

Zpráva byla vytvořena před 23 minutami, v 10:50 UTC
Západojihozápadní vítr 17 kt
Teplota 17°C
Vlhkost vzduchu 48%
Tlak 1013 hPa
Viditelnost 10 km a více
Skoro jasno ve výšce 3000 ft

METAR: LGAV 291050Z 25017KT 9999 FEW030 17/06 Q1013 NOSIG

Čas: 13:13 (11:13 UTC)

Předpověď počasí

Zpráva byla vytvořena před 6 hodinami a 13 minutami, v 05:00 UTC
Předpověď platná od 29 v 06 UTC do 30 v 06 UTC
Jihozápadní vítr 12 kt
Viditelnost 10 km a více
Skoro jasno ve výšce 2000 ft
Změna
od 29 v 12 UTC do 29 v 14 UTC
Jihozápadní vítr 12 kt s nárazy do 22 kt

TAF: LGAV 290500Z 2906/3006 23012KT 9999 FEW020 BECMG 2912/2914 23012G22KT

Stav a předpovědi počasí z více než 4 000 letišť (zprávy METAR a TAF).

Červené a žluté tečky na mapě představují dostupné meteorologické stanice.

Když kurzor umístíte na tečku, zobrazí se název stanice.

Pak kliknutím zobrazíte stav a předpověď počasí.

Chcete-li změnit mapu, kliknutím na zelené tlačítko se znaménkem +mapu přiblížíte, kliknutím na zelené tlačítko se znaménkem – mapu oddálíte a kliknutím na zelené šipky přejdete na sousední mapy.


METAR-TAF: